Costa Atlantica — IBLQ — position and weather

sailwx.info

Track history (hours):
 
Tides and Currents Weather Stations Pressure Air Temp Water Temp Dewpoint Dewpoint Depression Visibility Wind Speed Wind Dir Waves Ship Positions

Costa Atlantica (Italy)

Last reported at 2017-Apr-23 12:29 UTC. Time now 2017-Apr-24 23:06 UTC.
Position N 31°24' E 121°34'.

Length 292 m; draft 8 m.

Type: Ship. MMSI: 247645000.

Date/timePositionNaut miles runAvg speedWind from/ knotsBaromVisibWave heightAir tempDewpointWater temp
2017-Apr-23 12:29N 31°24' E 121°34'3 0.2
2017-Apr-22 23:09N 31°25' E 121°30'1 5.1
2017-Apr-22 22:55N 31°24' E 121°32'710.7
2017-Apr-22 22:14N 31°21' E 121°39'311.6
2017-Apr-22 21:58N 31°20' E 121°43'  
2017-Apr-19 09:31N 31°23' E 121°35'2 8.7
2017-Apr-19 09:21N 31°24' E 121°33'2 0.2
2017-Apr-18 21:18N 31°25' E 121°30'2 4.9
2017-Apr-18 20:59N 31°25' E 121°32'5 8.5
2017-Apr-18 20:20N 31°22' E 121°38'4 9.7
2017-Apr-18 19:53N 31°20' E 121°42'  
2017-Apr-14 20:56N 31°18' E 121°48'614.8
2017-Apr-14 20:30N 31°16' E 121°55'714.7
2017-Apr-14 20:00N 31°14' E 122°04'714.5
2017-Apr-14 19:30N 31°11' E 122°11'714.8
2017-Apr-14 19:00N 31°06' E 122°18'713.3
2017-Apr-14 18:30N 31°06' E 122°26'3 5.7
2017-Apr-14 18:01N 31°07' E 122°29'16 9.6
2017-Apr-14 16:20N 31°23' E 122°27'310.8
2017-Apr-14 16:01N 31°24' E 122°30'611.3
2017-Apr-14 15:30N 31°26' E 122°37'  
Track history (hours):
 
Tides and Currents Weather Stations Pressure Air Temp Water Temp Dewpoint Dewpoint Depression Visibility Wind Speed Wind Dir Waves Ship Positions

Costa Atlantica (Italy)

Last reported at 2017-Apr-23 12:29 UTC. Time now 2017-Apr-24 23:06 UTC.
Position N 31°24' E 121°34'.

Length 292 m; draft 8 m.

Type: Ship. MMSI: 247645000.

Date/timePositionNaut miles runAvg speedWind from/ knotsBaromVisibWave heightAir tempDewpointWater temp
2017-Apr-23 12:29N 31°24' E 121°34'3 0.2
2017-Apr-22 23:09N 31°25' E 121°30'1 5.1
2017-Apr-22 22:55N 31°24' E 121°32'710.7
2017-Apr-22 22:14N 31°21' E 121°39'311.6
2017-Apr-22 21:58N 31°20' E 121°43'  
2017-Apr-19 09:31N 31°23' E 121°35'2 8.7
2017-Apr-19 09:21N 31°24' E 121°33'2 0.2
2017-Apr-18 21:18N 31°25' E 121°30'2 4.9
2017-Apr-18 20:59N 31°25' E 121°32'5 8.5
2017-Apr-18 20:20N 31°22' E 121°38'4 9.7
2017-Apr-18 19:53N 31°20' E 121°42'  
2017-Apr-14 20:56N 31°18' E 121°48'614.8
2017-Apr-14 20:30N 31°16' E 121°55'714.7
2017-Apr-14 20:00N 31°14' E 122°04'714.5
2017-Apr-14 19:30N 31°11' E 122°11'714.8
2017-Apr-14 19:00N 31°06' E 122°18'713.3
2017-Apr-14 18:30N 31°06' E 122°26'3 5.7
2017-Apr-14 18:01N 31°07' E 122°29'16 9.6
2017-Apr-14 16:20N 31°23' E 122°27'310.8
2017-Apr-14 16:01N 31°24' E 122°30'611.3
2017-Apr-14 15:30N 31°26' E 122°37'  

Dump ship's entire track history